createdAt,value
2024-03-03T00:00:44.194Z,98383.56
2024-03-03T00:03:10.635Z,98381.19
2024-03-03T00:05:37.132Z,98386.72
2024-03-03T00:08:03.563Z,98383.16
2024-03-03T00:10:29.985Z,98387.13
2024-03-03T00:12:57.090Z,98380.00
2024-03-03T00:15:23.592Z,98381.97
2024-03-03T00:17:50.026Z,98379.22
2024-03-03T00:20:16.483Z,98387.88
2024-03-03T00:22:42.925Z,98385.13
2024-03-03T00:25:09.373Z,98376.47
2024-03-03T00:27:35.910Z,98381.56
2024-03-03T00:30:02.326Z,98383.94
2024-03-03T00:32:28.813Z,98374.84
2024-03-03T00:34:55.231Z,98382.34
2024-03-03T00:37:21.680Z,98370.53
2024-03-03T00:39:48.184Z,98366.19
2024-03-03T00:42:14.639Z,98375.66
2024-03-03T00:44:41.061Z,98373.28
2024-03-03T00:47:07.512Z,98369.34
2024-03-03T00:49:33.903Z,98382.34
2024-03-03T00:52:00.421Z,98378.81
2024-03-03T00:54:26.889Z,98373.69
2024-03-03T00:56:53.333Z,98380.00
2024-03-03T00:59:19.825Z,98363.44
2024-03-03T01:01:46.251Z,98370.16
2024-03-03T01:04:12.717Z,98365.41
2024-03-03T01:06:39.234Z,98368.19
2024-03-03T01:09:05.658Z,98372.50
2024-03-03T01:11:32.120Z,98367.78
2024-03-03T01:13:58.562Z,98369.34
2024-03-03T01:16:24.977Z,98363.44
2024-03-03T01:18:51.836Z,98357.09
2024-03-03T01:21:18.279Z,98365.00
2024-03-03T01:23:44.709Z,98353.97
2024-03-03T01:26:11.132Z,98353.56
2024-03-03T01:28:37.555Z,98350.41
2024-03-03T01:31:04.305Z,98346.47
2024-03-03T01:33:30.776Z,98340.97
2024-03-03T01:35:57.183Z,98340.97
2024-03-03T01:38:23.623Z,98340.19
2024-03-03T01:40:50.085Z,98331.09
2024-03-03T01:43:16.606Z,98332.28
2024-03-03T01:45:43.141Z,98333.06
2024-03-03T01:48:09.652Z,98324.00
2024-03-03T01:50:36.089Z,98325.97
2024-03-03T01:53:02.544Z,98320.47
2024-03-03T01:55:28.993Z,98326.75
2024-03-03T01:57:55.463Z,98324.00
2024-03-03T02:00:22.856Z,98320.84
2024-03-03T02:02:49.485Z,98311.00
2024-03-03T02:05:15.902Z,98312.56
2024-03-03T02:07:42.358Z,98311.78
2024-03-03T02:10:08.901Z,98295.63
2024-03-03T02:12:35.417Z,98299.53
2024-03-03T02:15:02.112Z,98297.97
2024-03-03T02:17:28.718Z,98294.44
2024-03-03T02:19:55.177Z,98293.66
2024-03-03T02:22:21.730Z,98294.81
2024-03-03T02:24:48.290Z,98292.47
2024-03-03T02:27:14.707Z,98291.69
2024-03-03T02:29:41.143Z,98286.53
2024-03-03T02:32:07.589Z,98291.66
2024-03-03T02:34:34.018Z,98290.09
2024-03-03T02:37:00.507Z,98284.97
2024-03-03T02:39:26.976Z,98285.75
2024-03-03T02:41:53.414Z,98284.16
2024-03-03T02:44:19.839Z,98279.44
2024-03-03T02:46:46.275Z,98288.91
2024-03-03T02:49:12.750Z,98277.47
2024-03-03T02:51:39.281Z,98285.69
2024-03-03T02:54:05.740Z,98282.97
2024-03-03T02:56:32.182Z,98286.13
2024-03-03T02:58:58.602Z,98282.16
2024-03-03T03:01:25.127Z,98289.66
2024-03-03T03:03:51.665Z,98288.50
2024-03-03T03:06:18.132Z,98288.47
2024-03-03T03:08:44.560Z,98294.75
2024-03-03T03:11:11.038Z,98284.13
2024-03-03T03:13:40.331Z,98284.13
2024-03-03T03:16:07.804Z,98295.16
2024-03-03T03:18:35.583Z,98292.41
2024-03-03T03:21:02.033Z,98295.53
2024-03-03T03:23:28.456Z,98293.59
2024-03-03T03:25:54.872Z,98288.06
2024-03-03T03:28:21.484Z,98281.75
2024-03-03T03:30:48.060Z,98282.53
2024-03-03T03:33:14.490Z,98277.03
2024-03-03T03:35:40.939Z,98279.38
2024-03-03T03:38:07.325Z,98275.78
2024-03-03T03:40:33.755Z,98273.44
2024-03-03T03:43:00.219Z,98274.22
2024-03-03T03:45:26.642Z,98273.41
2024-03-03T03:47:53.110Z,98269.88
2024-03-03T03:50:19.557Z,98262.78
2024-03-03T03:52:45.959Z,98266.72
2024-03-03T03:55:12.513Z,98262.78
2024-03-03T03:57:39.163Z,98265.91
2024-03-03T04:00:05.602Z,98264.72
2024-03-03T04:02:39.128Z,98271.41
2024-03-03T04:05:05.579Z,98261.59
2024-03-03T04:07:32.000Z,98261.19
2024-03-03T04:09:58.449Z,98255.66
2024-03-03T04:12:24.890Z,98255.25
2024-03-03T04:14:51.310Z,98255.66
2024-03-03T04:17:17.740Z,98246.59
2024-03-03T04:19:44.156Z,98246.19
2024-03-03T04:22:10.597Z,98245.00
2024-03-03T04:24:37.025Z,98240.28
2024-03-03T04:27:03.444Z,98246.97
2024-03-03T04:29:29.876Z,98233.94
2024-03-03T04:31:56.296Z,98241.47
2024-03-03T04:34:22.839Z,98247.34
2024-03-03T04:36:49.344Z,98242.25
2024-03-03T04:39:15.778Z,98247.34
2024-03-03T04:41:42.252Z,98241.81
2024-03-03T04:44:08.717Z,98235.13
2024-03-03T04:46:35.165Z,98231.16
2024-03-03T04:49:01.668Z,98239.03
2024-03-03T04:51:28.186Z,98237.81
2024-03-03T04:53:54.612Z,98239.41
2024-03-03T04:56:21.107Z,98237.41
2024-03-03T04:58:47.520Z,98240.16
2024-03-03T05:01:14.066Z,98233.84
2024-03-03T05:03:40.674Z,98233.06
2024-03-03T05:06:07.137Z,98232.66
2024-03-03T05:08:33.554Z,98239.34
2024-03-03T05:11:00.052Z,98240.88
2024-03-03T05:13:26.529Z,98240.47
2024-03-03T05:15:53.016Z,98244.78
2024-03-03T05:18:19.470Z,98252.25
2024-03-03T05:20:45.931Z,98242.78
2024-03-03T05:23:12.382Z,98243.19
2024-03-03T05:25:38.840Z,98249.84
2024-03-03T05:28:05.280Z,98247.09
2024-03-03T05:30:31.748Z,98251.81
2024-03-03T05:32:58.207Z,98247.06
2024-03-03T05:35:24.739Z,98253.75
2024-03-03T05:37:51.123Z,98251.78
2024-03-03T05:40:17.595Z,98253.72
2024-03-03T05:42:44.104Z,98250.16
2024-03-03T05:45:10.543Z,98252.50
2024-03-03T05:47:36.994Z,98248.88
2024-03-03T05:50:03.431Z,98242.56
2024-03-03T05:52:29.847Z,98237.94
2024-03-03T05:54:56.376Z,98236.72
2024-03-03T05:57:22.785Z,98235.13
2024-03-03T05:59:49.202Z,98234.34
2024-03-03T06:02:15.923Z,98244.59
2024-03-03T06:04:42.396Z,98240.69
2024-03-03T06:07:08.983Z,98239.91
2024-03-03T06:09:35.450Z,98246.63
2024-03-03T06:12:01.856Z,98246.63
2024-03-03T06:14:28.270Z,98258.44
2024-03-03T06:16:54.781Z,98256.88
2024-03-03T06:19:21.325Z,98261.63
2024-03-03T06:21:47.792Z,98260.06
2024-03-03T06:24:14.218Z,98257.72
2024-03-03T06:26:40.611Z,98268.00
2024-03-03T06:29:07.546Z,98258.97
2024-03-03T06:31:34.056Z,98265.25
2024-03-03T06:34:00.508Z,98261.75
2024-03-03T06:36:26.988Z,98266.91
2024-03-03T06:38:53.394Z,98260.63
2024-03-03T06:41:19.825Z,98265.34
2024-03-03T06:43:46.292Z,98261.81
2024-03-03T06:46:12.779Z,98256.31
2024-03-03T06:48:39.356Z,98253.22
2024-03-03T06:51:05.882Z,98228.75
2024-03-03T06:53:32.322Z,98243.00
2024-03-03T06:55:58.701Z,98250.88
2024-03-03T06:58:25.237Z,98247.75
2024-03-03T07:00:51.768Z,98247.00
2024-03-03T07:03:18.207Z,98247.00
2024-03-03T07:05:44.640Z,98250.97
2024-03-03T07:08:11.037Z,98244.69
2024-03-03T07:10:37.449Z,98239.97
2024-03-03T07:13:04.009Z,98236.00
2024-03-03T07:15:30.557Z,98246.31
2024-03-03T07:17:57.033Z,98251.03
2024-03-03T07:20:23.527Z,98250.25
2024-03-03T07:22:49.947Z,98249.09
2024-03-03T07:25:16.418Z,98244.00
2024-03-03T07:27:42.907Z,98262.09
2024-03-03T07:30:09.330Z,98259.75
2024-03-03T07:32:35.917Z,98242.00
2024-03-03T07:35:02.370Z,98257.38
2024-03-03T07:37:28.868Z,98253.44
2024-03-03T07:39:55.334Z,98255.00
2024-03-03T07:42:21.788Z,98251.47
2024-03-03T07:44:48.220Z,98256.59
2024-03-03T07:47:14.689Z,98249.91
2024-03-03T07:49:41.114Z,98237.69
2024-03-03T07:52:07.583Z,98244.38
2024-03-03T07:54:33.990Z,98243.59
2024-03-03T07:57:00.414Z,98231.38
2024-03-03T07:59:26.860Z,98235.31
2024-03-03T08:01:53.440Z,98236.09
2024-03-03T08:04:19.913Z,98228.19
2024-03-03T08:06:46.412Z,98230.97
2024-03-03T08:09:12.845Z,98232.16
2024-03-03T08:11:39.290Z,98223.09
2024-03-03T08:14:05.799Z,98228.22
2024-03-03T08:16:32.263Z,98227.84
2024-03-03T08:18:58.832Z,98230.97
2024-03-03T08:21:25.319Z,98226.63
2024-03-03T08:23:51.712Z,98232.56
2024-03-03T08:26:18.147Z,98238.47
2024-03-03T08:28:44.568Z,98229.78
2024-03-03T08:31:10.998Z,98238.84
2024-03-03T08:33:37.440Z,98237.69
2024-03-03T08:36:03.860Z,98221.50
2024-03-03T08:38:30.272Z,98218.75
2024-03-03T08:40:56.718Z,98217.94
2024-03-03T08:43:23.192Z,98226.63
2024-03-03T08:45:49.672Z,98225.44
2024-03-03T08:48:16.114Z,98215.59
2024-03-03T08:50:42.519Z,98227.84
2024-03-03T08:53:08.971Z,98220.72
2024-03-03T08:55:35.444Z,98213.22
2024-03-03T08:58:01.974Z,98209.28
2024-03-03T09:00:28.399Z,98205.31
2024-03-03T09:02:54.840Z,98208.09
2024-03-03T09:05:21.258Z,98199.00
2024-03-03T09:07:47.690Z,98204.91
2024-03-03T09:10:14.155Z,98211.22
2024-03-03T09:12:40.624Z,98202.13
2024-03-03T09:15:07.075Z,98204.88
2024-03-03T09:17:33.545Z,98212.78
2024-03-03T09:20:00.064Z,98203.28
2024-03-03T09:22:26.664Z,98202.88
2024-03-03T09:24:53.225Z,98200.50
2024-03-03T09:27:19.691Z,98202.47
2024-03-03T09:29:46.105Z,98201.66
2024-03-03T09:32:12.559Z,98194.56
2024-03-03T09:34:39.204Z,98192.59
2024-03-03T09:37:05.623Z,98196.13
2024-03-03T09:39:32.263Z,98198.88
2024-03-03T09:41:58.703Z,98203.22
2024-03-03T09:44:25.129Z,98199.25
2024-03-03T09:46:51.607Z,98184.66
2024-03-03T09:49:18.164Z,98188.59
2024-03-03T09:51:44.728Z,98190.19
2024-03-03T09:54:11.171Z,98188.22
2024-03-03T09:56:37.607Z,98190.56
2024-03-03T09:59:04.042Z,98183.06
2024-03-03T10:01:30.584Z,98191.38
2024-03-03T10:03:57.112Z,98186.19
2024-03-03T10:06:23.540Z,98182.63
2024-03-03T10:08:50.010Z,98181.81
2024-03-03T10:11:16.489Z,98188.94
2024-03-03T10:13:42.946Z,98177.09
2024-03-03T10:16:09.438Z,98184.97
2024-03-03T10:18:35.898Z,98178.25
2024-03-03T10:21:02.312Z,98181.81
2024-03-03T10:23:28.778Z,98186.53
2024-03-03T10:25:55.174Z,98182.56
2024-03-03T10:28:21.597Z,98179.41
2024-03-03T10:30:48.101Z,98176.66
2024-03-03T10:33:14.574Z,98182.91
2024-03-03T10:35:41.090Z,98174.19
2024-03-03T10:38:07.542Z,98171.41
2024-03-03T10:40:34.006Z,98162.28
2024-03-03T10:43:00.464Z,98161.09
2024-03-03T10:45:26.953Z,98164.25
2024-03-03T10:47:53.424Z,98165.38
2024-03-03T10:50:19.936Z,98165.00
2024-03-03T10:52:46.368Z,98164.19
2024-03-03T10:55:12.857Z,98164.56
2024-03-03T10:57:39.322Z,98165.69
2024-03-03T11:00:05.770Z,98164.09
2024-03-03T11:02:32.213Z,98157.41
2024-03-03T11:04:58.661Z,98156.63
2024-03-03T11:07:25.255Z,98149.88
2024-03-03T11:09:51.753Z,98153.81
2024-03-03T11:12:18.220Z,98148.66
2024-03-03T11:14:44.685Z,98151.00
2024-03-03T11:17:11.125Z,98145.88
2024-03-03T11:19:37.523Z,98132.03
2024-03-03T11:22:03.982Z,98135.53
2024-03-03T11:24:30.456Z,98132.78
2024-03-03T11:26:56.882Z,98133.16
2024-03-03T11:29:23.332Z,98134.34
2024-03-03T11:31:49.793Z,98133.50
2024-03-03T11:34:16.285Z,98126.38
2024-03-03T11:36:42.791Z,98122.41
2024-03-03T11:39:09.208Z,98117.59
2024-03-03T11:41:35.617Z,98119.56
2024-03-03T11:44:02.131Z,98119.16
2024-03-03T11:46:28.638Z,98112.81
2024-03-03T11:48:55.112Z,98116.72
2024-03-03T11:51:21.574Z,98112.38
2024-03-03T11:53:47.965Z,98101.25
2024-03-03T11:56:14.412Z,98105.56
2024-03-03T11:58:40.828Z,98105.91
2024-03-03T12:01:07.306Z,98098.00
2024-03-03T12:03:33.790Z,98102.69
2024-03-03T12:06:00.197Z,98095.97
2024-03-03T12:08:27.859Z,98095.91
2024-03-03T12:10:54.318Z,98092.75
2024-03-03T12:13:20.809Z,98094.72
2024-03-03T12:15:47.316Z,98095.88
2024-03-03T12:18:13.819Z,98094.25
2024-03-03T12:20:40.260Z,98095.44
2024-03-03T12:23:06.706Z,98104.09
2024-03-03T12:25:33.227Z,98104.47
2024-03-03T12:27:59.731Z,98094.53
2024-03-03T12:30:26.207Z,98098.88
2024-03-03T12:32:53.548Z,98095.72
2024-03-03T12:35:20.986Z,98092.50
2024-03-03T12:37:47.408Z,98091.31
2024-03-03T12:40:13.849Z,98091.69
2024-03-03T12:42:40.330Z,98086.13
2024-03-03T12:45:06.736Z,98082.97
2024-03-03T12:47:33.199Z,98080.56
2024-03-03T12:49:59.650Z,98079.38
2024-03-03T12:52:26.160Z,98070.63
2024-03-03T12:54:52.612Z,98077.75
2024-03-03T12:57:19.068Z,98078.09
2024-03-03T12:59:45.497Z,98072.53
2024-03-03T13:02:11.974Z,98065.78
2024-03-03T13:04:38.485Z,98070.88
2024-03-03T13:07:04.997Z,98061.41
2024-03-03T13:09:31.743Z,98072.03
2024-03-03T13:11:58.235Z,98065.66
2024-03-03T13:14:24.687Z,98067.59
2024-03-03T13:16:51.178Z,98063.66
2024-03-03T13:19:17.626Z,98056.50
2024-03-03T13:21:44.123Z,98071.13
2024-03-03T13:24:10.637Z,98059.63
2024-03-03T13:26:37.133Z,98061.56
2024-03-03T13:29:03.611Z,98062.34
2024-03-03T13:31:30.056Z,98060.72
2024-03-03T13:33:56.553Z,98065.06
2024-03-03T13:36:22.996Z,98058.31
2024-03-03T13:38:49.423Z,98050.78
2024-03-03T13:41:15.855Z,98049.59
2024-03-03T13:43:42.292Z,98061.06
2024-03-03T13:46:08.742Z,98053.53
2024-03-03T13:48:35.308Z,98051.56
2024-03-03T13:51:02.806Z,98030.34
2024-03-03T13:53:30.112Z,98055.47
2024-03-03T13:55:56.564Z,98051.50
2024-03-03T13:58:23.048Z,98051.50
2024-03-03T14:00:49.783Z,98052.28
2024-03-03T14:03:16.252Z,98050.66
2024-03-03T14:05:42.643Z,98055.44
2024-03-03T14:08:09.047Z,98051.44
2024-03-03T14:10:35.524Z,98053.81
2024-03-03T14:13:05.816Z,98051.03
2024-03-03T14:15:33.044Z,98056.91
2024-03-03T14:17:59.499Z,98052.16
2024-03-03T14:20:25.995Z,98048.97
2024-03-03T14:22:52.454Z,98044.22
2024-03-03T14:25:18.958Z,98044.59
2024-03-03T14:27:46.510Z,98044.59
2024-03-03T14:30:13.284Z,98051.69
2024-03-03T14:32:39.728Z,98045.38
2024-03-03T14:35:06.137Z,98041.38
2024-03-03T14:37:32.520Z,98045.75
2024-03-03T14:40:00.989Z,98047.28
2024-03-03T14:42:28.670Z,98050.84
2024-03-03T14:44:55.081Z,98045.38
2024-03-03T14:47:21.463Z,98054.94
2024-03-03T14:49:47.820Z,98051.88
2024-03-03T14:52:14.239Z,98050.75
2024-03-03T14:54:40.674Z,98044.50
2024-03-03T14:57:07.050Z,98050.53
2024-03-03T14:59:33.435Z,98051.41
2024-03-03T15:01:59.867Z,98047.59
2024-03-03T15:04:26.433Z,98050.81
2024-03-03T15:06:52.894Z,98050.50
2024-03-03T15:09:19.271Z,98053.31
2024-03-03T15:11:45.658Z,98046.69
2024-03-03T15:14:12.315Z,98052.00
2024-03-03T15:16:39.007Z,98044.88
2024-03-03T15:19:05.590Z,98053.66
2024-03-03T15:21:31.977Z,98050.16
2024-03-03T15:23:58.351Z,98041.50
2024-03-03T15:26:24.738Z,98043.94
2024-03-03T15:28:51.129Z,98053.94
2024-03-03T15:31:17.499Z,98054.72
2024-03-03T15:33:43.890Z,98050.06
2024-03-03T15:36:10.270Z,98047.34
2024-03-03T15:38:36.636Z,98039.84
2024-03-03T15:41:03.018Z,98042.59
2024-03-03T15:43:29.456Z,98037.88
2024-03-03T15:45:55.873Z,98036.00
2024-03-03T15:48:22.305Z,98043.56
2024-03-03T15:50:48.672Z,98039.66
2024-03-03T15:53:15.048Z,98041.63
2024-03-03T15:55:41.495Z,98042.06
2024-03-03T15:58:07.925Z,98041.31
2024-03-03T16:00:34.289Z,98044.13
2024-03-03T16:03:03.505Z,98040.59
2024-03-03T16:05:31.450Z,98034.31
2024-03-03T16:07:57.852Z,98039.50
2024-03-03T16:10:24.350Z,98028.88
2024-03-03T16:12:50.827Z,98039.97
2024-03-03T16:15:17.361Z,98043.19
2024-03-03T16:17:43.796Z,98039.66
2024-03-03T16:20:10.230Z,98037.31
2024-03-03T16:22:36.677Z,98039.75
2024-03-03T16:25:03.147Z,98042.50
2024-03-03T16:27:29.630Z,98041.34
2024-03-03T16:29:56.057Z,98048.09
2024-03-03T16:32:22.489Z,98049.72
2024-03-03T16:34:48.919Z,98049.75
2024-03-03T16:37:15.379Z,98051.75
2024-03-03T16:39:41.845Z,98058.09
2024-03-03T16:42:08.322Z,98051.00
2024-03-03T16:44:34.730Z,98056.94
2024-03-03T16:47:01.166Z,98061.69
2024-03-03T16:49:27.665Z,98063.72
2024-03-03T16:51:56.639Z,98058.59
2024-03-03T16:54:24.996Z,98062.56
2024-03-03T16:56:51.411Z,98063.78
2024-03-03T16:59:17.822Z,98061.03
2024-03-03T17:01:44.332Z,98057.47
2024-03-03T17:04:10.816Z,98059.44
2024-03-03T17:06:37.255Z,98065.78
2024-03-03T17:09:03.688Z,98063.03
2024-03-03T17:11:30.107Z,98056.72
2024-03-03T17:13:56.526Z,98054.00
2024-03-03T17:16:22.977Z,98063.06
2024-03-03T17:18:49.508Z,98053.22
2024-03-03T17:21:15.938Z,98057.19
2024-03-03T17:23:42.489Z,98055.59
2024-03-03T17:26:08.968Z,98056.00
2024-03-03T17:28:35.540Z,98052.47
2024-03-03T17:31:02.071Z,98050.91
2024-03-03T17:33:28.554Z,98049.34
2024-03-03T17:35:54.997Z,98053.28
2024-03-03T17:38:21.427Z,98057.25
2024-03-03T17:40:47.941Z,98053.31
2024-03-03T17:43:14.392Z,98065.50
2024-03-03T17:45:40.833Z,98057.59
2024-03-03T17:48:07.275Z,98058.03
2024-03-03T17:50:33.705Z,98054.88
2024-03-03T17:53:00.140Z,98053.69
2024-03-03T17:55:26.633Z,98050.94
2024-03-03T17:57:53.110Z,98053.31
2024-03-03T18:00:19.581Z,98052.50
2024-03-03T18:02:45.993Z,98049.75
2024-03-03T18:05:12.455Z,98052.91
2024-03-03T18:07:39.148Z,98062.34
2024-03-03T18:10:05.697Z,98058.81
2024-03-03T18:12:32.156Z,98053.31
2024-03-03T18:14:58.589Z,98059.59
2024-03-03T18:17:25.009Z,98054.47
2024-03-03T18:19:51.451Z,98059.97
2024-03-03T18:22:17.880Z,98061.53
2024-03-03T18:24:44.322Z,98057.97
2024-03-03T18:27:10.755Z,98058.72
2024-03-03T18:29:37.158Z,98062.66
2024-03-03T18:32:03.618Z,98067.34
2024-03-03T18:34:30.093Z,98067.75
2024-03-03T18:36:56.689Z,98062.63
2024-03-03T18:39:23.221Z,98061.03
2024-03-03T18:41:49.643Z,98060.25
2024-03-03T18:44:16.045Z,98062.56
2024-03-03T18:46:42.478Z,98061.78
2024-03-03T18:49:08.939Z,98070.00
2024-03-03T18:51:35.349Z,98060.19
2024-03-03T18:54:01.759Z,98054.25
2024-03-03T18:56:28.173Z,98064.47
2024-03-03T18:58:54.614Z,98065.63
2024-03-03T19:01:21.129Z,98066.81
2024-03-03T19:03:47.578Z,98070.31
2024-03-03T19:06:14.043Z,98059.69
2024-03-03T19:08:40.494Z,98058.50
2024-03-03T19:11:06.973Z,98062.75
2024-03-03T19:13:33.564Z,98064.31
2024-03-03T19:16:00.061Z,98061.53
2024-03-03T19:18:26.506Z,98068.59
2024-03-03T19:20:52.937Z,98067.41
2024-03-03T19:23:19.377Z,98071.69
2024-03-03T19:25:45.880Z,98067.38
2024-03-03T19:28:12.380Z,98064.59
2024-03-03T19:30:38.851Z,98070.06
2024-03-03T19:33:05.333Z,98067.69
2024-03-03T19:35:31.783Z,98069.59
2024-03-03T19:37:58.219Z,98068.41
2024-03-03T19:40:24.772Z,98066.81
2024-03-03T19:42:51.663Z,98073.44
2024-03-03T19:45:18.154Z,98068.72
2024-03-03T19:47:44.621Z,98071.44
2024-03-03T19:50:11.048Z,98066.72
2024-03-03T19:52:37.586Z,98067.13
2024-03-03T19:55:04.193Z,98065.53
2024-03-03T19:57:31.552Z,98072.63
2024-03-03T19:59:58.044Z,98067.13
2024-03-03T20:02:24.469Z,98065.53
2024-03-03T20:04:50.885Z,98067.16
2024-03-03T20:07:17.480Z,98071.09
2024-03-03T20:09:44.029Z,98073.88
2024-03-03T20:12:10.436Z,98067.59
2024-03-03T20:14:36.837Z,98070.38
2024-03-03T20:17:03.266Z,98062.53
2024-03-03T20:19:29.700Z,98074.34
2024-03-03T20:21:56.198Z,98069.66
2024-03-03T20:24:22.624Z,98065.38
2024-03-03T20:26:49.056Z,98078.38
2024-03-03T20:29:15.461Z,98066.63
2024-03-03T20:31:42.024Z,98061.56
2024-03-03T20:34:08.568Z,98060.88
2024-03-03T20:36:34.997Z,98064.44
2024-03-03T20:39:01.413Z,98066.41
2024-03-03T20:41:27.842Z,98061.75
2024-03-03T20:43:54.255Z,98067.25
2024-03-03T20:46:20.897Z,98069.25
2024-03-03T20:48:47.414Z,98072.81
2024-03-03T20:51:13.826Z,98078.34
2024-03-03T20:53:40.272Z,98076.41
2024-03-03T20:56:06.699Z,98072.50
2024-03-03T20:58:33.142Z,98069.75
2024-03-03T21:00:59.690Z,98080.81
2024-03-03T21:03:26.137Z,98076.50
2024-03-03T21:05:52.564Z,98077.69
2024-03-03T21:08:19.015Z,98076.50
2024-03-03T21:10:45.475Z,98075.31
2024-03-03T21:13:12.039Z,98076.91
2024-03-03T21:15:38.482Z,98081.66
2024-03-03T21:18:04.930Z,98065.91
2024-03-03T21:20:31.374Z,98068.25
2024-03-03T21:22:57.788Z,98076.50
2024-03-03T21:25:24.294Z,98075.34
2024-03-03T21:27:50.802Z,98077.69
2024-03-03T21:30:17.317Z,98074.94
2024-03-03T21:32:43.801Z,98071.00
2024-03-03T21:35:10.230Z,98073.38
2024-03-03T21:37:36.736Z,98063.53
2024-03-03T21:40:03.220Z,98064.72
2024-03-03T21:42:29.722Z,98062.75
2024-03-03T21:44:56.169Z,98067.47
2024-03-03T21:47:22.609Z,98058.81
2024-03-03T21:49:49.017Z,98058.81
2024-03-03T21:52:15.510Z,98063.94
2024-03-03T21:54:41.943Z,98067.88
2024-03-03T21:57:08.361Z,98065.13
2024-03-03T21:59:34.806Z,98060.38
2024-03-03T22:02:07.794Z,98055.69
2024-03-03T22:04:35.225Z,98054.88
2024-03-03T22:07:01.821Z,98053.31
2024-03-03T22:09:28.260Z,98054.84
2024-03-03T22:11:54.731Z,98059.19
2024-03-03T22:14:21.154Z,98056.84
2024-03-03T22:16:47.573Z,98052.91
2024-03-03T22:19:14.043Z,98053.28
2024-03-03T22:21:40.462Z,98049.75
2024-03-03T22:24:06.880Z,98050.94
2024-03-03T22:26:33.306Z,98046.97
2024-03-03T22:28:59.725Z,98041.47
2024-03-03T22:31:26.186Z,98050.94
2024-03-03T22:33:52.645Z,98043.84
2024-03-03T22:36:19.112Z,98046.22
2024-03-03T22:38:45.559Z,98048.56
2024-03-03T22:41:11.980Z,98046.59
2024-03-03T22:43:38.474Z,98046.22
2024-03-03T22:46:04.956Z,98040.69
2024-03-03T22:48:31.369Z,98029.66
2024-03-03T22:50:57.798Z,98033.19
2024-03-03T22:53:24.249Z,98029.69
2024-03-03T22:55:50.697Z,98025.72
2024-03-03T22:58:17.134Z,98022.56
2024-03-03T23:00:43.814Z,98025.75
2024-03-03T23:03:10.295Z,98025.75
2024-03-03T23:05:36.716Z,98024.56
2024-03-03T23:08:03.146Z,98021.41
2024-03-03T23:10:29.590Z,98023.34
2024-03-03T23:12:56.021Z,98017.88
2024-03-03T23:15:22.447Z,98015.50
2024-03-03T23:17:48.929Z,98016.66
2024-03-03T23:20:15.351Z,98010.38
2024-03-03T23:22:41.801Z,98008.78
2024-03-03T23:25:08.278Z,98013.50
2024-03-03T23:27:34.691Z,98010.00
2024-03-03T23:30:01.140Z,98018.63
2024-03-03T23:32:27.607Z,98008.38
2024-03-03T23:34:54.052Z,98007.19
2024-03-03T23:37:20.542Z,98012.28
2024-03-03T23:39:46.973Z,98004.84
2024-03-03T23:42:13.397Z,98006.78
2024-03-03T23:44:39.867Z,97998.50
2024-03-03T23:47:06.291Z,98004.44
2024-03-03T23:49:32.732Z,98009.16
2024-03-03T23:51:59.220Z,97996.53
2024-03-03T23:54:25.672Z,97998.94
2024-03-03T23:56:52.124Z,97996.56
2024-03-03T23:59:18.610Z,97998.13
